createdAt,value
2019-05-23T00:00:51.145Z,14.39
2019-05-23T00:03:23.035Z,14.39
2019-05-23T00:06:01.482Z,14.40
2019-05-23T00:08:32.376Z,14.39
2019-05-23T00:11:22.050Z,14.31
2019-05-23T00:14:01.260Z,14.23
2019-05-23T00:16:32.243Z,14.16
2019-05-23T00:19:05.949Z,14.09
2019-05-23T00:21:37.369Z,14.10
2019-05-23T00:24:08.443Z,14.11
2019-05-23T00:26:39.472Z,14.06
2019-05-23T00:29:11.142Z,14.01
2019-05-23T00:31:58.890Z,13.98
2019-05-23T00:34:30.328Z,13.99
2019-05-23T00:37:00.031Z,13.94
2019-05-23T00:39:31.842Z,13.94
2019-05-23T00:42:01.444Z,13.94
2019-05-23T00:44:32.269Z,13.89
2019-05-23T00:47:02.277Z,13.86
2019-05-23T00:49:32.413Z,13.80
2019-05-23T00:52:01.965Z,13.77
2019-05-23T00:54:32.269Z,13.76
2019-05-23T00:57:02.450Z,13.74
2019-05-23T00:59:33.297Z,13.70
2019-05-23T01:02:02.977Z,13.66
2019-05-23T01:04:32.436Z,13.59
2019-05-23T01:07:01.925Z,13.52
2019-05-23T01:09:32.532Z,13.46
2019-05-23T01:12:02.281Z,13.39
2019-05-23T01:14:32.519Z,13.36
2019-05-23T01:17:02.028Z,13.31
2019-05-23T01:19:32.377Z,13.26
2019-05-23T01:22:08.033Z,13.22
2019-05-23T01:24:43.593Z,13.18
2019-05-23T01:27:13.768Z,13.14
2019-05-23T01:29:50.314Z,13.07
2019-05-23T01:32:38.121Z,13.07
2019-05-23T01:35:12.738Z,13.03
2019-05-23T01:37:44.064Z,12.95
2019-05-23T01:40:15.844Z,12.99
2019-05-23T01:42:46.248Z,13.04
2019-05-23T01:45:17.968Z,13.07
2019-05-23T01:47:50.408Z,13.10
2019-05-23T01:50:25.626Z,13.12
2019-05-23T01:52:55.870Z,13.11
2019-05-23T01:55:25.726Z,13.08
2019-05-23T01:57:56.003Z,13.10
2019-05-23T02:00:30.432Z,13.09
2019-05-23T02:03:01.126Z,13.10
2019-05-23T02:05:30.893Z,13.04
2019-05-23T02:08:00.944Z,13.03
2019-05-23T02:10:31.102Z,13.02
2019-05-23T02:13:01.271Z,13.01
2019-05-23T02:15:31.690Z,12.95
2019-05-23T02:18:01.542Z,12.94
2019-05-23T02:20:32.098Z,12.93
2019-05-23T02:23:03.123Z,12.91
2019-05-23T02:25:32.653Z,12.88
2019-05-23T02:28:02.219Z,12.83
2019-05-23T02:30:34.635Z,12.76
2019-05-23T02:33:03.920Z,12.73
2019-05-23T02:35:33.317Z,12.72
2019-05-23T02:38:31.297Z,12.70
2019-05-23T02:41:08.655Z,12.67
2019-05-23T02:43:39.902Z,12.61
2019-05-23T02:46:19.157Z,12.59
2019-05-23T02:48:51.337Z,12.57
2019-05-23T02:51:26.288Z,12.52
2019-05-23T02:53:57.130Z,12.51
2019-05-23T02:56:28.645Z,12.47
2019-05-23T02:59:39.322Z,12.45
2019-05-23T03:02:54.756Z,12.44
2019-05-23T03:05:28.100Z,12.31
2019-05-23T03:08:00.668Z,12.25
2019-05-23T03:10:49.989Z,12.31
2019-05-23T03:13:21.616Z,12.38
2019-05-23T03:15:51.918Z,12.37
2019-05-23T03:18:23.587Z,12.36
2019-05-23T03:20:54.412Z,12.39
2019-05-23T03:23:24.304Z,12.38
2019-05-23T03:26:35.663Z,12.37
2019-05-23T03:29:06.943Z,12.37
2019-05-23T03:31:46.337Z,12.39
2019-05-23T03:34:17.906Z,12.43
2019-05-23T03:36:47.535Z,12.45
2019-05-23T03:39:17.186Z,12.50
2019-05-23T03:41:48.131Z,12.50
2019-05-23T03:44:19.396Z,12.51
2019-05-23T03:46:51.257Z,12.50
2019-05-23T03:49:20.910Z,12.47
2019-05-23T03:51:50.372Z,12.45
2019-05-23T03:54:21.159Z,12.43
2019-05-23T03:56:50.705Z,12.44
2019-05-23T03:59:22.895Z,12.41
2019-05-23T04:01:54.679Z,12.43
2019-05-23T04:04:26.354Z,12.43
2019-05-23T04:06:57.457Z,12.41
2019-05-23T04:09:28.003Z,12.42
2019-05-23T04:11:58.416Z,12.42
2019-05-23T04:14:28.331Z,12.43
2019-05-23T04:16:58.512Z,12.41
2019-05-23T04:19:28.118Z,12.41
2019-05-23T04:21:58.256Z,12.37
2019-05-23T04:24:29.973Z,12.34
2019-05-23T04:26:59.410Z,12.27
2019-05-23T04:29:28.949Z,12.23
2019-05-23T04:32:08.175Z,12.20
2019-05-23T04:34:29.696Z,12.23
2019-05-23T04:36:59.137Z,12.25
2019-05-23T04:39:29.298Z,12.28
2019-05-23T04:41:58.680Z,12.26
2019-05-23T04:44:28.113Z,12.22
2019-05-23T04:46:57.543Z,12.18
2019-05-23T04:49:27.290Z,12.15
2019-05-23T04:51:57.858Z,12.13
2019-05-23T04:54:28.338Z,12.14
2019-05-23T04:56:57.757Z,12.10
2019-05-23T04:59:27.217Z,12.04
2019-05-23T05:01:57.870Z,12.01
2019-05-23T05:04:27.547Z,12.01
2019-05-23T05:06:57.121Z,12.02
2019-05-23T05:09:29.713Z,12.03
2019-05-23T05:12:00.135Z,12.05
2019-05-23T05:14:32.599Z,12.06
2019-05-23T05:17:02.011Z,12.08
2019-05-23T05:19:32.672Z,12.10
2019-05-23T05:22:02.192Z,12.13
2019-05-23T05:24:31.632Z,12.17
2019-05-23T05:27:01.196Z,12.21
2019-05-23T05:29:30.580Z,12.26
2019-05-23T05:32:03.628Z,12.33
2019-05-23T05:34:31.843Z,12.40
2019-05-23T05:37:02.010Z,12.42
2019-05-23T05:39:31.611Z,12.42
2019-05-23T05:42:01.614Z,12.43
2019-05-23T05:44:32.080Z,12.45
2019-05-23T05:47:01.908Z,12.49
2019-05-23T05:49:31.289Z,12.53
2019-05-23T05:52:00.949Z,12.61
2019-05-23T05:54:30.417Z,12.71
2019-05-23T05:56:59.983Z,12.84
2019-05-23T05:59:29.920Z,12.95
2019-05-23T06:01:59.670Z,13.06
2019-05-23T06:04:29.154Z,13.15
2019-05-23T06:07:13.603Z,13.26
2019-05-23T06:09:43.436Z,13.37
2019-05-23T06:12:14.228Z,13.45
2019-05-23T06:14:46.496Z,13.53
2019-05-23T06:17:16.322Z,13.65
2019-05-23T06:19:46.863Z,13.73
2019-05-23T06:22:18.417Z,13.83
2019-05-23T06:24:53.752Z,13.95
2019-05-23T06:27:22.664Z,14.07
2019-05-23T06:29:52.157Z,14.21
2019-05-23T06:32:24.026Z,14.36
2019-05-23T06:34:56.062Z,14.51
2019-05-23T06:37:26.892Z,14.65
2019-05-23T06:39:57.038Z,14.78
2019-05-23T06:42:26.689Z,14.89
2019-05-23T06:44:57.234Z,15.01
2019-05-23T06:47:27.761Z,15.15
2019-05-23T06:49:57.321Z,15.31
2019-05-23T06:52:27.248Z,15.45
2019-05-23T06:54:59.684Z,15.60
2019-05-23T06:57:27.953Z,15.80
2019-05-23T06:59:58.651Z,15.96
2019-05-23T07:02:31.832Z,16.18
2019-05-23T07:05:01.394Z,16.37
2019-05-23T07:07:32.848Z,16.54
2019-05-23T07:10:05.051Z,16.70
2019-05-23T07:12:34.617Z,16.90
2019-05-23T07:15:04.587Z,17.09
2019-05-23T07:17:34.143Z,17.27
2019-05-23T07:20:04.614Z,17.46
2019-05-23T07:22:34.097Z,17.58
2019-05-23T07:25:05.006Z,17.71
2019-05-23T07:27:35.078Z,17.81
2019-05-23T07:30:06.703Z,17.94
2019-05-23T07:32:36.187Z,18.06
2019-05-23T07:35:06.781Z,18.15
2019-05-23T07:37:36.175Z,18.31
2019-05-23T07:40:06.436Z,18.48
2019-05-23T07:42:35.748Z,18.64
2019-05-23T07:45:07.125Z,18.78
2019-05-23T07:47:39.884Z,18.96
2019-05-23T07:50:07.751Z,19.11
2019-05-23T07:52:37.163Z,19.23
2019-05-23T07:55:12.276Z,19.41
2019-05-23T07:57:41.724Z,19.56
2019-05-23T08:00:19.786Z,19.72
2019-05-23T08:09:00.863Z,20.19
2019-05-23T08:11:30.255Z,20.39
2019-05-23T08:14:00.327Z,20.57
2019-05-23T08:16:33.676Z,20.66
2019-05-23T08:19:03.621Z,20.83
2019-05-23T08:21:33.482Z,20.96
2019-05-23T08:24:03.346Z,21.12
2019-05-23T08:26:34.178Z,21.23
2019-05-23T08:29:24.663Z,21.24
2019-05-23T08:31:40.812Z,21.30
2019-05-23T08:34:11.247Z,21.36
2019-05-23T08:36:41.333Z,21.41
2019-05-23T08:39:14.747Z,21.40
2019-05-23T08:44:12.781Z,21.48
2019-05-23T08:49:14.854Z,21.62
2019-05-23T08:52:02.895Z,21.52
2019-05-23T08:54:33.836Z,21.46
2019-05-23T09:11:47.033Z,20.52
2019-05-23T09:14:16.837Z,20.55
2019-05-23T09:16:47.012Z,20.68
2019-05-23T09:19:18.729Z,20.75
2019-05-23T09:21:49.198Z,20.68
2019-05-23T09:24:18.742Z,20.63
2019-05-23T09:26:49.339Z,20.71
2019-05-23T09:29:25.015Z,20.83
2019-05-23T09:31:54.473Z,20.89
2019-05-23T09:34:24.797Z,20.88
2019-05-23T09:37:00.922Z,20.91
2019-05-23T09:39:31.208Z,20.83
2019-05-23T09:42:00.760Z,20.79
2019-05-23T09:44:30.464Z,20.91
2019-05-23T09:47:02.345Z,20.98
2019-05-23T09:49:37.006Z,20.92
2019-05-23T09:52:09.443Z,20.94
2019-05-23T09:54:39.664Z,21.01
2019-05-23T09:57:10.433Z,21.11
2019-05-23T09:59:40.510Z,21.26
2019-05-23T10:02:13.019Z,21.26
2019-05-23T10:04:42.725Z,21.32
2019-05-23T10:07:12.845Z,21.40
2019-05-23T10:09:42.374Z,21.55
2019-05-23T10:12:11.852Z,21.67
2019-05-23T10:14:41.455Z,21.72
2019-05-23T10:17:16.349Z,21.69
2019-05-23T10:19:46.017Z,21.74
2019-05-23T10:22:20.626Z,21.60
2019-05-23T10:24:57.611Z,21.53
2019-05-23T10:27:29.978Z,21.44
2019-05-23T10:29:59.623Z,21.32
2019-05-23T10:32:31.194Z,21.27
2019-05-23T10:35:00.972Z,21.13
2019-05-23T10:37:30.450Z,21.13
2019-05-23T10:39:59.826Z,21.14
2019-05-23T10:42:29.711Z,21.18
2019-05-23T10:53:38.532Z,20.86
2019-05-23T10:56:12.676Z,20.79
2019-05-23T10:58:46.743Z,20.86
2019-05-23T11:01:21.582Z,20.95
2019-05-23T11:03:58.808Z,21.04
2019-05-23T11:06:40.997Z,21.06
2019-05-23T11:09:11.611Z,20.99
2019-05-23T11:11:42.933Z,21.07
2019-05-23T11:14:27.212Z,21.08
2019-05-23T11:16:57.133Z,21.18
2019-05-23T11:19:26.679Z,21.30
2019-05-23T11:22:00.051Z,21.37
2019-05-23T11:24:30.200Z,21.45
2019-05-23T11:26:59.895Z,21.49
2019-05-23T11:29:29.854Z,21.39
2019-05-23T11:32:02.729Z,21.58
2019-05-23T11:34:32.428Z,21.65
2019-05-23T11:37:02.012Z,21.78
2019-05-23T11:39:31.620Z,21.74
2019-05-23T11:42:01.317Z,21.64
2019-05-23T11:44:34.904Z,21.45
2019-05-23T11:47:11.220Z,21.31
2019-05-23T11:49:42.543Z,21.27
2019-05-23T11:52:13.436Z,21.42
2019-05-23T11:54:43.642Z,21.47
2019-05-23T11:57:15.121Z,21.76
2019-05-23T12:02:39.748Z,21.99
2019-05-23T12:05:18.629Z,21.95
2019-05-23T12:07:48.199Z,22.08
2019-05-23T12:10:20.758Z,22.25
2019-05-23T12:12:50.351Z,22.29
2019-05-23T12:15:28.952Z,22.42
2019-05-23T12:17:58.770Z,22.58
2019-05-23T12:20:28.415Z,22.65
2019-05-23T12:22:59.399Z,22.53
2019-05-23T12:25:34.608Z,22.53
2019-05-23T12:28:06.683Z,22.23
2019-05-23T12:30:36.935Z,22.00
2019-05-23T12:33:09.681Z,21.83
2019-05-23T12:35:39.287Z,21.69
2019-05-23T12:38:09.530Z,21.74
2019-05-23T12:40:39.016Z,21.66
2019-05-23T12:43:08.382Z,21.96
2019-05-23T12:45:37.663Z,21.89
2019-05-23T12:48:17.545Z,21.99
2019-05-23T12:50:46.995Z,21.98
2019-05-23T12:53:17.938Z,22.03
2019-05-23T12:55:47.555Z,22.15
2019-05-23T12:58:18.941Z,22.16
2019-05-23T13:00:54.122Z,22.07
2019-05-23T13:03:26.557Z,21.57
2019-05-23T13:05:56.104Z,21.28
2019-05-23T13:08:25.599Z,21.42
2019-05-23T13:10:55.097Z,21.64
2019-05-23T13:13:24.510Z,21.88
2019-05-23T13:15:56.638Z,22.18
2019-05-23T13:18:28.618Z,22.44
2019-05-23T13:20:59.692Z,22.70
2019-05-23T13:23:29.741Z,23.01
2019-05-23T13:25:59.289Z,23.16
2019-05-23T13:28:29.874Z,23.50
2019-05-23T13:31:00.268Z,23.81
2019-05-23T13:33:30.043Z,23.86
2019-05-23T13:35:59.590Z,23.99
2019-05-23T13:38:29.269Z,24.06
2019-05-23T13:41:00.286Z,24.09
2019-05-23T13:43:30.165Z,24.04
2019-05-23T13:46:11.606Z,24.03
2019-05-23T13:48:40.998Z,23.90
2019-05-23T13:51:10.358Z,24.06
2019-05-23T13:53:39.722Z,24.52
2019-05-23T13:56:09.332Z,24.59
2019-05-23T13:58:38.722Z,24.45
2019-05-23T14:01:12.362Z,24.27
2019-05-23T14:03:42.805Z,23.98
2019-05-23T14:06:12.487Z,23.71
2019-05-23T14:08:42.330Z,23.43
2019-05-23T14:11:14.632Z,23.14
2019-05-23T14:13:45.598Z,23.08
2019-05-23T14:16:15.428Z,22.81
2019-05-23T14:18:44.809Z,22.81
2019-05-23T14:21:14.640Z,22.63
2019-05-23T14:23:44.027Z,22.52
2019-05-23T14:26:16.700Z,22.44
2019-05-23T14:28:46.201Z,22.33
2019-05-23T14:31:19.239Z,22.09
2019-05-23T14:34:11.393Z,21.95
2019-05-23T14:37:02.603Z,21.68
2019-05-23T14:39:42.225Z,21.21
2019-05-23T14:42:46.077Z,21.08
2019-05-23T14:45:47.369Z,21.18
2019-05-23T14:48:24.410Z,21.73
2019-05-23T14:54:03.117Z,22.50
2019-05-23T14:56:34.124Z,22.64
2019-05-23T14:59:07.713Z,22.58
2019-05-23T15:01:37.449Z,22.62
2019-05-23T15:04:07.215Z,22.88
2019-05-23T15:06:45.475Z,23.15
2019-05-23T15:09:21.259Z,22.97
2019-05-23T15:11:49.960Z,23.00
2019-05-23T15:14:26.730Z,22.77
2019-05-23T15:16:59.319Z,22.45
2019-05-23T15:19:41.775Z,22.66
2019-05-23T15:22:00.228Z,22.57
2019-05-23T15:27:34.300Z,21.98
2019-05-23T15:33:03.133Z,22.63
2019-05-23T15:35:40.375Z,22.27
2019-05-23T15:41:37.632Z,21.93
2019-05-23T15:44:31.084Z,21.89
2019-05-23T15:47:00.562Z,22.05
2019-05-23T15:52:51.696Z,21.68
2019-05-23T15:56:16.806Z,21.83
2019-05-23T16:01:59.469Z,22.03
2019-05-23T16:04:33.718Z,21.77
2019-05-23T16:07:04.008Z,21.64
2019-05-23T16:09:33.605Z,21.60
2019-05-23T16:12:03.641Z,21.56
2019-05-23T16:14:33.193Z,21.49
2019-05-23T16:17:03.309Z,21.81
2019-05-23T16:19:34.805Z,22.01
2019-05-23T16:22:12.129Z,22.20
2019-05-23T16:24:42.032Z,22.25
2019-05-23T16:27:21.923Z,22.25
2019-05-23T16:29:53.785Z,22.55
2019-05-23T16:32:27.736Z,22.10
2019-05-23T16:35:08.108Z,22.10
2019-05-23T16:43:18.442Z,21.38
2019-05-23T16:45:48.062Z,21.21
2019-05-23T16:48:19.539Z,20.95
2019-05-23T16:51:08.159Z,20.91
2019-05-23T16:53:59.182Z,20.83
2019-05-23T16:56:49.410Z,20.64
2019-05-23T17:02:36.404Z,20.42
2019-05-23T17:05:45.533Z,20.13
2019-05-23T17:08:29.998Z,20.10
2019-05-23T17:17:49.070Z,19.88
2019-05-23T17:27:10.134Z,20.31
2019-05-23T17:29:56.483Z,20.60
2019-05-23T17:32:39.113Z,20.65
2019-05-23T17:35:48.452Z,20.63
2019-05-23T17:38:25.348Z,20.78
2019-05-23T17:41:10.492Z,20.98
2019-05-23T17:44:03.586Z,21.08
2019-05-23T17:46:21.151Z,21.14
2019-05-23T17:51:42.537Z,21.14
2019-05-23T17:54:16.647Z,21.13
2019-05-23T17:56:46.418Z,21.13
2019-05-23T17:59:15.942Z,21.66
2019-05-23T18:01:53.387Z,22.02
2019-05-23T18:04:23.023Z,22.30
2019-05-23T18:06:52.857Z,22.22
2019-05-23T18:09:25.820Z,22.09
2019-05-23T18:12:00.119Z,21.93
2019-05-23T18:14:54.242Z,21.98
2019-05-23T18:17:41.277Z,21.84
2019-05-23T18:20:14.334Z,21.72
2019-05-23T18:22:44.582Z,21.44
2019-05-23T18:25:14.754Z,21.02
2019-05-23T18:27:45.968Z,20.62
2019-05-23T18:30:35.924Z,20.32
2019-05-23T18:33:10.710Z,20.10
2019-05-23T18:35:47.035Z,19.92
2019-05-23T18:38:16.913Z,19.74
2019-05-23T18:41:01.685Z,19.49
2019-05-23T18:43:21.194Z,19.36
2019-05-23T18:45:52.724Z,19.27
2019-05-23T18:48:22.283Z,19.19
2019-05-23T18:50:55.468Z,19.15
2019-05-23T18:53:28.127Z,19.19
2019-05-23T18:55:57.915Z,19.24
2019-05-23T18:58:27.462Z,19.42
2019-05-23T19:01:20.743Z,19.27
2019-05-23T19:03:50.314Z,19.17
2019-05-23T19:06:20.676Z,19.36
2019-05-23T19:08:57.103Z,19.75
2019-05-23T19:11:26.667Z,19.94
2019-05-23T19:13:56.089Z,20.00
2019-05-23T19:16:26.615Z,20.23
2019-05-23T19:18:59.005Z,20.49
2019-05-23T19:21:31.427Z,20.38
2019-05-23T19:24:00.921Z,20.17
2019-05-23T19:26:30.931Z,19.97
2019-05-23T19:29:00.572Z,19.83
2019-05-23T19:31:30.242Z,19.68
2019-05-23T19:34:00.180Z,19.63
2019-05-23T19:36:30.545Z,19.54
2019-05-23T19:39:00.234Z,19.52
2019-05-23T19:41:37.402Z,19.38
2019-05-23T19:44:01.036Z,19.27
2019-05-23T19:46:30.400Z,19.12
2019-05-23T19:48:59.794Z,19.04
2019-05-23T19:51:29.177Z,18.94
2019-05-23T19:54:00.406Z,18.84
2019-05-23T19:56:30.468Z,18.80
2019-05-23T19:58:59.917Z,18.74
2019-05-23T20:01:32.518Z,18.70
2019-05-23T20:04:01.855Z,18.66
2019-05-23T20:06:32.428Z,18.62
2019-05-23T20:09:03.409Z,18.59
2019-05-23T20:11:32.722Z,18.57
2019-05-23T20:14:02.108Z,18.50
2019-05-23T20:16:31.696Z,18.44
2019-05-23T20:19:01.020Z,18.43
2019-05-23T20:21:31.000Z,18.41
2019-05-23T20:24:00.431Z,18.36
2019-05-23T20:26:31.549Z,18.33
2019-05-23T20:29:03.328Z,18.28
2019-05-23T20:31:32.094Z,18.25
2019-05-23T20:34:01.821Z,18.21
2019-05-23T20:36:31.290Z,18.18
2019-05-23T20:39:00.632Z,18.20
2019-05-23T20:41:30.338Z,18.18
2019-05-23T20:43:59.620Z,18.21
2019-05-23T20:46:28.996Z,18.24
2019-05-23T20:49:00.175Z,18.21
2019-05-23T20:51:29.629Z,18.20
2019-05-23T20:53:58.963Z,18.13
2019-05-23T20:56:28.282Z,18.11
2019-05-23T20:58:57.688Z,18.05
2019-05-23T21:01:36.148Z,18.01
2019-05-23T21:04:06.163Z,17.92
2019-05-23T21:06:35.551Z,17.86
2019-05-23T21:09:06.679Z,17.82
2019-05-23T21:11:36.048Z,17.80
2019-05-23T21:14:05.496Z,17.77
2019-05-23T21:16:34.864Z,17.70
2019-05-23T21:19:04.279Z,17.68
2019-05-23T21:21:33.785Z,17.61
2019-05-23T21:24:03.185Z,17.57
2019-05-23T21:26:32.568Z,17.54
2019-05-23T21:29:03.012Z,17.48
2019-05-23T21:31:32.456Z,17.44
2019-05-23T21:34:01.763Z,17.37
2019-05-23T21:36:31.147Z,17.35
2019-05-23T21:39:00.517Z,17.28
2019-05-23T21:41:29.903Z,17.27
2019-05-23T21:43:59.294Z,17.25
2019-05-23T21:46:28.802Z,17.25
2019-05-23T21:48:58.160Z,17.25
2019-05-23T21:51:27.462Z,17.28
2019-05-23T21:53:56.775Z,17.29
2019-05-23T21:56:26.046Z,17.29
2019-05-23T21:58:55.340Z,17.28
2019-05-23T22:01:43.044Z,17.31
2019-05-23T22:04:34.028Z,17.30
2019-05-23T22:07:05.254Z,17.21
2019-05-23T22:09:35.678Z,17.23
2019-05-23T22:12:06.200Z,17.27
2019-05-23T22:14:36.410Z,17.26
2019-05-23T22:17:05.844Z,17.28
2019-05-23T22:19:35.368Z,17.27
2019-05-23T22:22:05.078Z,17.30
2019-05-23T22:24:34.489Z,17.34
2019-05-23T22:27:04.113Z,17.37
2019-05-23T22:29:33.435Z,17.35
2019-05-23T22:32:02.843Z,17.36
2019-05-23T22:35:00.332Z,17.35
2019-05-23T22:37:31.162Z,17.34
2019-05-23T22:40:00.633Z,17.32
2019-05-23T22:42:30.776Z,17.36
2019-05-23T22:45:00.086Z,17.39
2019-05-23T22:47:29.928Z,17.41
2019-05-23T22:49:59.343Z,17.44
2019-05-23T22:52:28.714Z,17.45
2019-05-23T22:54:58.047Z,17.43
2019-05-23T22:57:27.352Z,17.41
2019-05-23T22:59:56.727Z,17.37
2019-05-23T23:02:26.119Z,17.36
2019-05-23T23:04:55.558Z,17.31
2019-05-23T23:07:25.171Z,17.28
2019-05-23T23:09:54.527Z,17.28
2019-05-23T23:12:23.911Z,17.24
2019-05-23T23:14:53.293Z,17.20
2019-05-23T23:17:23.351Z,17.21
2019-05-23T23:19:52.688Z,17.18
2019-05-23T23:22:21.984Z,17.17
2019-05-23T23:24:51.290Z,17.15
2019-05-23T23:27:20.789Z,17.12
2019-05-23T23:29:50.282Z,17.11
2019-05-23T23:32:19.663Z,17.10
2019-05-23T23:34:49.049Z,17.09
2019-05-23T23:37:18.415Z,17.09
2019-05-23T23:39:48.871Z,17.07
2019-05-23T23:42:18.276Z,17.03
2019-05-23T23:44:46.608Z,17.01
2019-05-23T23:47:33.854Z,16.99
2019-05-23T23:50:20.564Z,16.98
2019-05-23T23:53:07.357Z,16.84
2019-05-23T23:55:54.616Z,16.75
2019-05-23T23:58:24.989Z,16.68
